Time,TemperatureF,DewpointF,PressureIn,WindDirection,WindDirectionDegrees,WindSpeedMPH,WindSpeedGustMPH,Humidity,HourlyPrecipIn,Conditions,Clouds,dailyrainin,SoftwareType,DateUTC
2013-10-04 00:00:00,53.9,53.0,30.05,ENE,78,0.0,2.0,97,0.00,,,0.00,weatherlink.com 1.10,2013-10-04 04:00:00,
2013-10-04 00:45:00,53.8,53.0,30.05,ENE,78,0.0,1.0,97,0.00,,,0.00,weatherlink.com 1.10,2013-10-04 04:45:00,
2013-10-04 01:15:00,54.8,54.0,30.05,East,82,0.0,2.0,97,0.00,,,0.00,weatherlink.com 1.10,2013-10-04 05:15:00,
2013-10-04 01:30:00,54.9,54.0,30.05,NE,49,0.0,3.0,97,0.00,,,0.00,weatherlink.com 1.10,2013-10-04 05:30:00,
2013-10-04 01:45:00,55.0,54.0,30.05,ENE,67,1.0,3.0,97,0.00,,,0.00,weatherlink.com 1.10,2013-10-04 05:45:00,
2013-10-04 02:00:00,55.2,54.0,30.05,NW,319,0.0,3.0,96,0.00,,,0.00,weatherlink.com 1.10,2013-10-04 06:00:00,
2013-10-04 02:15:00,54.6,53.0,30.05,NW,320,0.0,1.0,95,0.00,,,0.00,weatherlink.com 1.10,2013-10-04 06:15:00,
2013-10-04 02:30:00,54.2,53.0,30.05,NW,320,0.0,0.0,95,0.00,,,0.00,weatherlink.com 1.10,2013-10-04 06:30:00,
2013-10-04 02:45:00,54.8,53.0,30.05,NW,320,0.0,3.0,95,0.00,,,0.00,weatherlink.com 1.10,2013-10-04 06:45:00,
2013-10-04 03:00:00,54.8,53.0,30.04,NW,321,1.0,4.0,95,0.00,,,0.00,weatherlink.com 1.10,2013-10-04 07:00:00,
2013-10-04 03:15:00,54.4,53.0,30.05,NW,321,0.0,1.0,94,0.00,,,0.00,weatherlink.com 1.10,2013-10-04 07:15:00,
2013-10-04 03:30:00,55.0,54.0,30.04,NW,306,4.0,5.0,95,0.00,,,0.00,weatherlink.com 1.10,2013-10-04 07:30:00,
2013-10-04 03:45:00,55.9,54.0,30.04,WNW,285,4.0,4.0,93,0.00,,,0.00,weatherlink.com 1.10,2013-10-04 07:45:00,
2013-10-04 04:00:00,56.0,54.0,30.03,WNW,301,3.0,5.0,93,0.00,,,0.00,weatherlink.com 1.10,2013-10-04 08:00:00,
2013-10-04 04:15:00,56.1,54.0,30.03,WNW,290,1.0,7.0,94,0.00,,,0.00,weatherlink.com 1.10,2013-10-04 08:15:00,
2013-10-04 04:30:00,55.8,54.0,30.03,SW,216,3.0,4.0,94,0.00,,,0.00,weatherlink.com 1.10,2013-10-04 08:30:00,
2013-10-04 04:45:00,55.8,54.0,30.03,NE,36,1.0,3.0,95,0.00,,,0.00,weatherlink.com 1.10,2013-10-04 08:45:00,
2013-10-04 05:00:00,55.9,55.0,30.04,NW,304,3.0,3.0,96,0.00,,,0.00,weatherlink.com 1.10,2013-10-04 09:00:00,
2013-10-04 05:15:00,56.0,55.0,30.04,WNW,295,3.0,5.0,96,0.00,,,0.00,weatherlink.com 1.10,2013-10-04 09:15:00,
2013-10-04 05:30:00,56.0,55.0,30.04,NW,305,1.0,6.0,96,0.00,,,0.00,weatherlink.com 1.10,2013-10-04 09:30:00,
2013-10-04 05:45:00,55.8,55.0,30.04,WNW,282,7.0,9.0,96,0.00,,,0.00,weatherlink.com 1.10,2013-10-04 09:45:00,
2013-10-04 06:00:00,55.8,55.0,30.04,WNW,286,5.0,9.0,97,0.00,,,0.00,weatherlink.com 1.10,2013-10-04 10:00:00,
2013-10-04 06:15:00,55.8,55.0,30.04,West,274,3.0,10.0,97,0.00,,,0.00,weatherlink.com 1.10,2013-10-04 10:15:00,
2013-10-04 06:30:00,55.8,55.0,30.04,WSW,257,5.0,10.0,97,0.00,,,0.00,weatherlink.com 1.10,2013-10-04 10:30:00,
2013-10-04 06:45:00,56.0,55.0,30.04,West,281,2.0,14.0,97,0.00,,,0.00,weatherlink.com 1.10,2013-10-04 10:45:00,
2013-10-04 07:00:00,55.9,55.0,30.05,WNW,303,7.0,10.0,97,0.00,,,0.00,weatherlink.com 1.10,2013-10-04 11:00:00,
2013-10-04 07:15:00,55.8,55.0,30.05,West,272,5.0,11.0,97,0.00,,,0.00,weatherlink.com 1.10,2013-10-04 11:15:00,
2013-10-04 07:30:00,55.6,55.0,30.06,West,259,2.0,11.0,97,0.00,,,0.00,weatherlink.com 1.10,2013-10-04 11:30:00,
2013-10-04 07:45:00,55.3,55.0,30.06,West,267,2.0,13.0,97,0.00,,,0.00,weatherlink.com 1.10,2013-10-04 11:45:00,
2013-10-04 08:00:00,55.4,55.0,30.07,NNW,346,4.0,10.0,97,0.00,,,0.00,weatherlink.com 1.10,2013-10-04 12:00:00,
2013-10-04 08:15:00,55.4,55.0,30.07,WNW,287,3.0,11.0,98,0.00,,,0.00,weatherlink.com 1.10,2013-10-04 12:15:00,
2013-10-04 08:30:00,55.4,55.0,30.08,NNW,328,4.0,11.0,98,0.00,,,0.00,weatherlink.com 1.10,2013-10-04 12:30:00,
2013-10-04 08:45:00,55.4,55.0,30.08,NW,319,5.0,8.0,98,0.00,,,0.00,weatherlink.com 1.10,2013-10-04 12:45:00,
2013-10-04 09:00:00,55.7,55.0,30.08,SSW,212,4.0,11.0,97,0.00,,,0.00,weatherlink.com 1.10,2013-10-04 13:00:00,
2013-10-04 09:15:00,56.2,55.0,30.09,NW,317,4.0,10.0,97,0.00,,,0.00,weatherlink.com 1.10,2013-10-04 13:15:00,
2013-10-04 09:30:00,56.4,56.0,30.09,SSW,207,2.0,9.0,97,0.00,,,0.00,weatherlink.com 1.10,2013-10-04 13:30:00,
2013-10-04 09:45:00,56.7,56.0,30.10,SSW,209,1.0,13.0,97,0.00,,,0.00,weatherlink.com 1.10,2013-10-04 13:45:00,
2013-10-04 10:00:00,56.7,56.0,30.10,SW,226,4.0,12.0,96,0.00,,,0.00,weatherlink.com 1.10,2013-10-04 14:00:00,
2013-10-04 10:15:00,57.1,56.0,30.10,South,188,5.0,8.0,96,0.00,,,0.00,weatherlink.com 1.10,2013-10-04 14:15:00,
2013-10-04 10:30:00,57.4,56.0,30.10,South,174,2.0,8.0,95,0.00,,,0.00,weatherlink.com 1.10,2013-10-04 14:30:00,
2013-10-04 10:45:00,58.4,56.0,30.10,SW,217,1.0,10.0,93,0.00,,,0.00,weatherlink.com 1.10,2013-10-04 14:45:00,
2013-10-04 11:01:00,58.8,56.0,30.10,WSW,244,1.0,9.0,91,0.00,,,0.00,weatherlink.com 1.10,2013-10-04 15:01:00,
2013-10-04 11:16:00,59.7,57.0,30.10,ESE,117,5.0,8.0,90,0.00,,,0.00,weatherlink.com 1.10,2013-10-04 15:16:00,
2013-10-04 11:31:00,60.7,57.0,30.10,WNW,285,4.0,9.0,88,0.00,,,0.00,weatherlink.com 1.10,2013-10-04 15:31:00,
2013-10-04 11:46:00,61.3,57.0,30.09,NW,325,3.0,9.0,84,0.00,,,0.00,weatherlink.com 1.10,2013-10-04 15:46:00,
2013-10-04 12:01:00,61.8,56.0,30.09,WSW,243,4.0,8.0,82,0.00,,,0.00,weatherlink.com 1.10,2013-10-04 16:01:00,
2013-10-04 12:16:00,61.8,57.0,30.09,SSW,203,3.0,8.0,83,0.00,,,0.00,weatherlink.com 1.10,2013-10-04 16:16:00,
2013-10-04 12:31:00,61.8,57.0,30.09,NNE,26,0.0,7.0,83,0.00,,,0.00,weatherlink.com 1.10,2013-10-04 16:31:00,
2013-10-04 12:46:00,62.7,56.0,30.09,SSW,207,4.0,10.0,80,0.00,,,0.00,weatherlink.com 1.10,2013-10-04 16:46:00,
2013-10-04 13:01:00,63.0,57.0,30.09,South,190,0.0,8.0,80,0.00,,,0.00,weatherlink.com 1.10,2013-10-04 17:01:00,
2013-10-04 13:16:00,63.0,57.0,30.08,WSW,244,2.0,4.0,80,0.00,,,0.00,weatherlink.com 1.10,2013-10-04 17:16:00,
2013-10-04 13:31:00,63.8,57.0,30.08,NW,304,1.0,6.0,78,0.00,,,0.00,weatherlink.com 1.10,2013-10-04 17:31:00,
2013-10-04 14:01:00,63.0,56.0,30.07,SSW,199,0.0,3.0,78,0.00,,,0.00,weatherlink.com 1.10,2013-10-04 18:01:00,
2013-10-04 14:16:00,63.0,56.0,30.06,NNW,333,0.0,3.0,78,0.00,,,0.00,weatherlink.com 1.10,2013-10-04 18:16:00,
2013-10-04 14:31:00,63.6,56.0,30.06,SSW,211,3.0,4.0,77,0.00,,,0.00,weatherlink.com 1.10,2013-10-04 18:31:00,
2013-10-04 14:46:00,64.1,57.0,30.05,SW,225,2.0,4.0,77,0.00,,,0.00,weatherlink.com 1.10,2013-10-04 18:46:00,
2013-10-04 15:01:00,64.8,57.0,30.05,SW,227,0.0,1.0,75,0.00,,,0.00,weatherlink.com 1.10,2013-10-04 19:01:00,
2013-10-04 15:16:00,65.0,57.0,30.05,SW,228,0.0,2.0,75,0.00,,,0.00,weatherlink.com 1.10,2013-10-04 19:16:00,
2013-10-04 15:31:00,65.3,58.0,30.05,SW,228,0.0,1.0,76,0.00,,,0.00,weatherlink.com 1.10,2013-10-04 19:31:00,
2013-10-04 15:46:00,66.6,59.0,30.05,NW,315,2.0,4.0,77,0.00,,,0.00,weatherlink.com 1.10,2013-10-04 19:46:00,
2013-10-04 16:01:00,65.2,59.0,30.05,West,279,0.0,1.0,81,0.00,,,0.00,weatherlink.com 1.10,2013-10-04 20:01:00,
2013-10-04 16:16:00,64.2,59.0,30.05,NE,54,0.0,2.0,83,0.00,,,0.00,weatherlink.com 1.10,2013-10-04 20:16:00,
2013-10-04 16:31:00,63.3,59.0,30.05,East,90,0.0,2.0,85,0.00,,,0.00,weatherlink.com 1.10,2013-10-04 20:31:00,
2013-10-04 16:46:00,63.0,59.0,30.05,ESE,108,0.0,4.0,86,0.00,,,0.00,weatherlink.com 1.10,2013-10-04 20:46:00,
2013-10-04 17:01:00,62.6,58.0,30.05,ESE,107,0.0,1.0,86,0.00,,,0.00,weatherlink.com 1.10,2013-10-04 21:01:00,
2013-10-04 17:16:00,63.5,59.0,30.05,ENE,70,0.0,3.0,84,0.00,,,0.00,weatherlink.com 1.10,2013-10-04 21:16:00,
2013-10-04 17:31:00,64.3,59.0,30.05,NE,46,0.0,2.0,82,0.00,,,0.00,weatherlink.com 1.10,2013-10-04 21:31:00,
2013-10-04 17:46:00,64.7,58.0,30.05,ENE,75,0.0,4.0,80,0.00,,,0.00,weatherlink.com 1.10,2013-10-04 21:46:00,
2013-10-04 18:01:00,64.2,58.0,30.05,ENE,73,0.0,2.0,81,0.00,,,0.00,weatherlink.com 1.10,2013-10-04 22:01:00,
2013-10-04 18:16:00,63.5,58.0,30.05,SE,138,0.0,2.0,81,0.00,,,0.00,weatherlink.com 1.10,2013-10-04 22:16:00,
2013-10-04 18:31:00,62.7,58.0,30.05,ESE,107,0.0,1.0,84,0.00,,,0.00,weatherlink.com 1.10,2013-10-04 22:31:00,
2013-10-04 18:46:00,61.8,58.0,30.06,ESE,107,0.0,0.0,86,0.00,,,0.00,weatherlink.com 1.10,2013-10-04 22:46:00,
2013-10-04 19:01:00,60.8,57.0,30.06,ESE,107,0.0,0.0,87,0.00,,,0.00,weatherlink.com 1.10,2013-10-04 23:01:00,
2013-10-04 19:16:00,59.8,57.0,30.06,ESE,107,0.0,0.0,89,0.00,,,0.00,weatherlink.com 1.10,2013-10-04 23:16:00,
2013-10-04 19:31:00,59.1,56.0,30.06,ESE,107,0.0,0.0,89,0.00,,,0.00,weatherlink.com 1.10,2013-10-04 23:31:00,
2013-10-04 19:46:00,58.4,56.0,30.06,ESE,107,0.0,0.0,90,0.00,,,0.00,weatherlink.com 1.10,2013-10-04 23:46:00,
2013-10-04 20:01:00,57.7,55.0,30.06,East,90,0.0,1.0,91,0.00,,,0.00,weatherlink.com 1.10,2013-10-05 00:01:00,
2013-10-04 20:16:00,57.5,55.0,30.07,East,90,0.0,1.0,92,0.00,,,0.00,weatherlink.com 1.10,2013-10-05 00:16:00,
2013-10-04 20:31:00,57.7,55.0,30.07,East,92,0.0,2.0,92,0.00,,,0.00,weatherlink.com 1.10,2013-10-05 00:31:00,
2013-10-04 20:46:00,57.2,55.0,30.08,East,92,0.0,1.0,93,0.00,,,0.00,weatherlink.com 1.10,2013-10-05 00:46:00,
2013-10-04 21:01:00,57.4,55.0,30.08,East,91,0.0,1.0,92,0.00,,,0.00,weatherlink.com 1.10,2013-10-05 01:01:00,
2013-10-04 21:16:00,58.2,56.0,30.08,SSE,165,0.0,4.0,92,0.00,,,0.00,weatherlink.com 1.10,2013-10-05 01:16:00,
2013-10-04 21:31:00,58.8,57.0,30.09,SW,214,0.0,2.0,92,0.00,,,0.00,weatherlink.com 1.10,2013-10-05 01:31:00,
2013-10-04 21:46:00,58.5,56.0,30.09,SSE,158,0.0,2.0,92,0.00,,,0.00,weatherlink.com 1.10,2013-10-05 01:46:00,
2013-10-04 22:01:00,58.5,56.0,30.09,SSE,159,2.0,3.0,91,0.00,,,0.00,weatherlink.com 1.10,2013-10-05 02:01:00,
2013-10-04 22:16:00,58.5,56.0,30.09,SSE,157,2.0,3.0,91,0.00,,,0.00,weatherlink.com 1.10,2013-10-05 02:16:00,
2013-10-04 22:31:00,58.4,56.0,30.08,SSE,157,0.0,2.0,91,0.00,,,0.00,weatherlink.com 1.10,2013-10-05 02:31:00,
2013-10-04 22:46:00,58.5,55.0,30.08,SE,130,3.0,5.0,89,0.00,,,0.00,weatherlink.com 1.10,2013-10-05 02:46:00,
2013-10-04 23:01:00,59.0,56.0,30.08,SE,136,1.0,4.0,89,0.00,,,0.00,weatherlink.com 1.10,2013-10-05 03:01:00,
2013-10-04 23:16:00,59.4,56.0,30.08,SE,135,5.0,5.0,88,0.00,,,0.00,weatherlink.com 1.10,2013-10-05 03:16:00,
2013-10-04 23:31:00,59.7,56.0,30.07,SE,136,2.0,5.0,87,0.00,,,0.00,weatherlink.com 1.10,2013-10-05 03:31:00,
2013-10-04 23:46:00,59.5,56.0,30.07,SE,134,2.0,5.0,88,0.00,,,0.00,weatherlink.com 1.10,2013-10-05 03:46:00,